sensor_id;sensor_type;location;lat;lon;timestamp;pressure;altitude;pressure_sealevel;temperature;humidity
57894;BME280;43710;47.460;19.034;2023-03-21T05:00:07;100469.41;;;13.15;64.61
57894;BME280;43710;47.460;19.034;2023-03-21T05:03:12;100469.41;;;13.15;64.61
57894;BME280;43710;47.460;19.034;2023-03-21T05:06:22;100474.22;;;12.67;65.48
57894;BME280;43710;47.460;19.034;2023-03-21T05:09:25;100470.66;;;12.72;78.47
57894;BME280;43710;47.460;19.034;2023-03-21T05:12:27;100476.84;;;12.72;91.66
57894;BME280;43710;47.460;19.034;2023-03-21T05:15:30;100472.03;;;12.69;85.09
57894;BME280;43710;47.460;19.034;2023-03-21T05:18:32;100477.34;;;12.55;68.95
57894;BME280;43710;47.460;19.034;2023-03-21T05:21:36;100486.28;;;12.69;79.36
57894;BME280;43710;47.460;19.034;2023-03-21T05:24:43;100486.56;;;12.49;68.54
57894;BME280;43710;47.460;19.034;2023-03-21T05:27:55;100487.06;;;12.51;67.38
57894;BME280;43710;47.460;19.034;2023-03-21T05:30:57;100481.63;;;12.56;65.91
57894;BME280;43710;47.460;19.034;2023-03-21T05:34:00;100483.88;;;12.68;66.28
57894;BME280;43710;47.460;19.034;2023-03-21T05:37:03;100485.13;;;12.76;65.60
57894;BME280;43710;47.460;19.034;2023-03-21T05:40:09;100496.81;;;12.85;65.02
57894;BME280;43710;47.460;19.034;2023-03-21T05:43:12;100503.06;;;12.80;65.57
57894;BME280;43710;47.460;19.034;2023-03-21T05:46:14;100506.75;;;12.84;65.35
57894;BME280;43710;47.460;19.034;2023-03-21T05:49:17;100513.34;;;12.78;66.16
57894;BME280;43710;47.460;19.034;2023-03-21T05:52:20;100510.66;;;12.78;66.37
57894;BME280;43710;47.460;19.034;2023-03-21T05:55:23;100511.87;;;12.86;65.95
57894;BME280;43710;47.460;19.034;2023-03-21T05:58:26;100506.19;;;12.87;65.29
57894;BME280;43710;47.460;19.034;2023-03-21T06:01:29;100512.94;;;13.04;64.67
57894;BME280;43710;47.460;19.034;2023-03-21T06:04:32;100513.31;;;12.97;65.76
57894;BME280;43710;47.460;19.034;2023-03-21T06:07:34;100513.66;;;13.09;67.67
57894;BME280;43710;47.460;19.034;2023-03-21T06:10:38;100508.41;;;13.18;64.89
57894;BME280;43710;47.460;19.034;2023-03-21T06:13:42;100511.91;;;13.19;65.27
57894;BME280;43710;47.460;19.034;2023-03-21T06:16:44;100513.22;;;13.21;65.18
57894;BME280;43710;47.460;19.034;2023-03-21T06:19:47;100515.88;;;13.40;63.80
57894;BME280;43710;47.460;19.034;2023-03-21T06:22:50;100520.66;;;13.43;68.69
57894;BME280;43710;47.460;19.034;2023-03-21T06:25:52;100510.78;;;13.38;63.84
57894;BME280;43710;47.460;19.034;2023-03-21T06:28:54;100516.88;;;13.44;63.50
57894;BME280;43710;47.460;19.034;2023-03-21T06:31:57;100518.28;;;13.42;63.44
57894;BME280;43710;47.460;19.034;2023-03-21T06:34:59;100520.62;;;13.62;62.15
57894;BME280;43710;47.460;19.034;2023-03-21T06:38:02;100512.53;;;13.62;62.70
57894;BME280;43710;47.460;19.034;2023-03-21T06:41:06;100517.34;;;13.65;62.53
57894;BME280;43710;47.460;19.034;2023-03-21T06:44:10;100516.34;;;13.89;66.46
57894;BME280;43710;47.460;19.034;2023-03-21T06:47:14;100512.03;;;13.74;61.47
57894;BME280;43710;47.460;19.034;2023-03-21T06:50:17;100521.09;;;13.64;62.44
57894;BME280;43710;47.460;19.034;2023-03-21T06:53:22;100518.31;;;13.55;62.76
57894;BME280;43710;47.460;19.034;2023-03-21T06:56:31;100515.44;;;13.66;64.47
57894;BME280;43710;47.460;19.034;2023-03-21T06:59:36;100525.03;;;13.85;64.55
57894;BME280;43710;47.460;19.034;2023-03-21T07:02:38;100524.13;;;13.76;62.91
57894;BME280;43710;47.460;19.034;2023-03-21T07:05:42;100523.31;;;13.76;62.36
57894;BME280;43710;47.460;19.034;2023-03-21T07:08:44;100516.75;;;13.96;70.07
57894;BME280;43710;47.460;19.034;2023-03-21T07:11:49;100524.03;;;14.09;61.45
57894;BME280;43710;47.460;19.034;2023-03-21T07:14:54;100528.53;;;14.00;60.49
57894;BME280;43710;47.460;19.034;2023-03-21T07:17:57;100528.13;;;14.06;60.78
57894;BME280;43710;47.460;19.034;2023-03-21T07:20:59;100530.62;;;14.03;61.58
57894;BME280;43710;47.460;19.034;2023-03-21T07:24:02;100528.44;;;14.05;60.22
57894;BME280;43710;47.460;19.034;2023-03-21T07:27:04;100525.44;;;14.06;60.44
57894;BME280;43710;47.460;19.034;2023-03-21T07:30:07;100526.66;;;14.14;60.58
57894;BME280;43710;47.460;19.034;2023-03-21T07:33:11;100528.22;;;14.29;60.28
57894;BME280;43710;47.460;19.034;2023-03-21T07:36:14;100526.22;;;14.34;59.72
57894;BME280;43710;47.460;19.034;2023-03-21T07:39:18;100531.59;;;14.48;58.90
57894;BME280;43710;47.460;19.034;2023-03-21T07:42:23;100529.81;;;14.57;57.11
57894;BME280;43710;47.460;19.034;2023-03-21T07:45:26;100527.22;;;14.52;56.79
57894;BME280;43710;47.460;19.034;2023-03-21T07:48:30;100528.81;;;14.53;59.09
57894;BME280;43710;47.460;19.034;2023-03-21T07:51:35;100524.19;;;14.68;61.58
57894;BME280;43710;47.460;19.034;2023-03-21T07:54:38;100522.66;;;14.75;62.55
57894;BME280;43710;47.460;19.034;2023-03-21T07:57:40;100535.66;;;14.87;56.55
57894;BME280;43710;47.460;19.034;2023-03-21T08:00:43;100520.59;;;14.72;55.60
57894;BME280;43710;47.460;19.034;2023-03-21T08:03:45;100521.34;;;14.87;61.75
57894;BME280;43710;47.460;19.034;2023-03-21T08:06:49;100520.25;;;14.88;57.38
57894;BME280;43710;47.460;19.034;2023-03-21T08:09:53;100510.50;;;15.00;56.61
57894;BME280;43710;47.460;19.034;2023-03-21T08:12:55;100519.66;;;15.13;56.72
57894;BME280;43710;47.460;19.034;2023-03-21T08:15:59;100519.94;;;15.34;60.14
57894;BME280;43710;47.460;19.034;2023-03-21T08:19:02;100511.03;;;15.34;53.68
57894;BME280;43710;47.460;19.034;2023-03-21T08:22:05;100511.13;;;15.51;50.94
57894;BME280;43710;47.460;19.034;2023-03-21T08:25:08;100512.69;;;15.43;51.00
57894;BME280;43710;47.460;19.034;2023-03-21T08:28:14;100513.84;;;15.51;51.10
57894;BME280;43710;47.460;19.034;2023-03-21T08:31:16;100507.94;;;15.49;49.13
57894;BME280;43710;47.460;19.034;2023-03-21T08:34:19;100501.44;;;15.50;49.69
57894;BME280;43710;47.460;19.034;2023-03-21T08:37:21;100499.44;;;15.64;50.83
57894;BME280;43710;47.460;19.034;2023-03-21T08:40:24;100511.47;;;15.81;49.83
57894;BME280;43710;47.460;19.034;2023-03-21T08:43:27;100515.00;;;15.90;55.57
57894;BME280;43710;47.460;19.034;2023-03-21T08:46:30;100521.22;;;15.90;51.31
57894;BME280;43710;47.460;19.034;2023-03-21T08:49:34;100506.84;;;15.81;50.44
57894;BME280;43710;47.460;19.034;2023-03-21T08:52:36;100507.03;;;15.85;50.26
57894;BME280;43710;47.460;19.034;2023-03-21T08:55:39;100523.59;;;15.92;50.41
57894;BME280;43710;47.460;19.034;2023-03-21T08:58:42;100504.87;;;16.04;50.46
57894;BME280;43710;47.460;19.034;2023-03-21T09:01:45;100505.44;;;15.92;50.30
57894;BME280;43710;47.460;19.034;2023-03-21T09:04:48;100513.41;;;15.89;48.66
57894;BME280;43710;47.460;19.034;2023-03-21T09:07:54;100510.44;;;15.68;49.23
57894;BME280;43710;47.460;19.034;2023-03-21T09:10:57;100519.16;;;15.65;49.33
57894;BME280;43710;47.460;19.034;2023-03-21T09:13:59;100513.03;;;15.73;49.83
57894;BME280;43710;47.460;19.034;2023-03-21T09:17:02;100517.84;;;15.85;49.56
57894;BME280;43710;47.460;19.034;2023-03-21T09:20:04;100512.84;;;16.09;49.23
57894;BME280;43710;47.460;19.034;2023-03-21T09:23:13;100513.16;;;16.08;49.31
57894;BME280;43710;47.460;19.034;2023-03-21T09:26:15;100519.53;;;16.12;57.49
57894;BME280;43710;47.460;19.034;2023-03-21T09:29:20;100516.06;;;16.20;48.72
57894;BME280;43710;47.460;19.034;2023-03-21T09:32:22;100513.47;;;16.06;48.49
57894;BME280;43710;47.460;19.034;2023-03-21T09:35:25;100519.84;;;16.19;50.57
57894;BME280;43710;47.460;19.034;2023-03-21T09:38:28;100518.13;;;16.23;48.51
57894;BME280;43710;47.460;19.034;2023-03-21T09:42:09;100529.28;;;16.30;47.50
57894;BME280;43710;47.460;19.034;2023-03-21T09:45:28;100525.91;;;16.25;46.76
57894;BME280;43710;47.460;19.034;2023-03-21T09:52:00;100513.16;;;16.08;47.86
57894;BME280;43710;47.460;19.034;2023-03-21T09:55:15;100517.47;;;16.17;46.42
57894;BME280;43710;47.460;19.034;2023-03-21T09:58:28;100508.06;;;16.06;47.57
57894;BME280;43710;47.460;19.034;2023-03-21T10:01:32;100523.47;;;16.06;50.81
57894;BME280;43710;47.460;19.034;2023-03-21T10:04:42;100509.41;;;16.26;50.30
57894;BME280;43710;47.460;19.034;2023-03-21T10:11:10;100502.41;;;16.34;47.19
57894;BME280;43710;47.460;19.034;2023-03-21T10:14:33;100495.84;;;16.17;45.59
57894;BME280;43710;47.460;19.034;2023-03-21T10:17:40;100496.78;;;16.13;44.79
57894;BME280;43710;47.460;19.034;2023-03-21T10:20:44;100492.00;;;16.18;45.36
57894;BME280;43710;47.460;19.034;2023-03-21T10:23:48;100496.66;;;16.35;46.91
57894;BME280;43710;47.460;19.034;2023-03-21T10:26:53;100497.13;;;16.29;44.25
57894;BME280;43710;47.460;19.034;2023-03-21T10:29:57;100493.63;;;16.28;43.67
57894;BME280;43710;47.460;19.034;2023-03-21T10:33:03;100484.59;;;16.33;43.21
57894;BME280;43710;47.460;19.034;2023-03-21T10:36:15;100486.50;;;16.41;47.56
57894;BME280;43710;47.460;19.034;2023-03-21T10:39:39;100483.63;;;16.55;44.33
57894;BME280;43710;47.460;19.034;2023-03-21T10:42:43;100478.41;;;16.50;43.56
57894;BME280;43710;47.460;19.034;2023-03-21T10:45:46;100480.00;;;16.59;43.58
57894;BME280;43710;47.460;19.034;2023-03-21T10:48:52;100476.00;;;16.74;42.04
57894;BME280;43710;47.460;19.034;2023-03-21T10:52:01;100480.66;;;16.82;41.69
57894;BME280;43710;47.460;19.034;2023-03-21T10:58:20;100474.25;;;16.61;42.79
57894;BME280;43710;47.460;19.034;2023-03-21T11:01:38;100473.63;;;16.64;41.91
57894;BME280;43710;47.460;19.034;2023-03-21T11:04:42;100470.13;;;16.72;43.77
57894;BME280;43710;47.460;19.034;2023-03-21T11:07:45;100460.28;;;16.76;42.37
57894;BME280;43710;47.460;19.034;2023-03-21T11:10:54;100460.41;;;16.88;42.87
57894;BME280;43710;47.460;19.034;2023-03-21T11:14:04;100445.94;;;16.93;44.76
57894;BME280;43710;47.460;19.034;2023-03-21T11:20:19;100435.88;;;16.85;47.33
57894;BME280;43710;47.460;19.034;2023-03-21T11:23:26;100444.66;;;16.82;41.45
57894;BME280;43710;47.460;19.034;2023-03-21T11:26:35;100435.72;;;16.64;43.31
57894;BME280;43710;47.460;19.034;2023-03-21T11:29:39;100430.47;;;16.50;41.84
57894;BME280;43710;47.460;19.034;2023-03-21T11:32:50;100433.81;;;16.47;41.49
57894;BME280;43710;47.460;19.034;2023-03-21T11:39:30;100424.09;;;16.37;42.99
57894;BME280;43710;47.460;19.034;2023-03-21T11:42:42;100423.94;;;16.34;45.92
57894;BME280;43710;47.460;19.034;2023-03-21T11:48:59;100422.22;;;16.29;41.96
57894;BME280;43710;47.460;19.034;2023-03-21T11:52:29;100413.28;;;16.37;49.04
57894;BME280;43710;47.460;19.034;2023-03-21T12:06:01;100392.75;;;16.62;40.95
57894;BME280;43710;47.460;19.034;2023-03-21T12:09:20;100392.59;;;16.59;40.15
57894;BME280;43710;47.460;19.034;2023-03-21T12:33:18;100380.00;;;17.36;40.50
57894;BME280;43710;47.460;19.034;2023-03-21T12:36:30;100364.03;;;17.34;42.30
57894;BME280;43710;47.460;19.034;2023-03-21T12:39:38;100374.16;;;17.17;42.76
57894;BME280;43710;47.460;19.034;2023-03-21T12:46:38;100371.84;;;16.98;43.32
57894;BME280;43710;47.460;19.034;2023-03-21T12:49:50;100367.09;;;16.86;43.67
57894;BME280;43710;47.460;19.034;2023-03-21T12:53:00;100369.63;;;16.74;45.68
57894;BME280;43710;47.460;19.034;2023-03-21T12:56:10;100375.06;;;16.74;44.38
57894;BME280;43710;47.460;19.034;2023-03-21T13:02:59;100372.84;;;16.67;45.75
57894;BME280;43710;47.460;19.034;2023-03-21T13:06:06;100365.69;;;16.62;44.33
57894;BME280;43710;47.460;19.034;2023-03-21T13:09:19;100358.19;;;16.68;44.79
57894;BME280;43710;47.460;19.034;2023-03-21T13:12:44;100349.75;;;16.61;46.22
57894;BME280;43710;47.460;19.034;2023-03-21T13:16:13;100340.50;;;16.71;44.36
57894;BME280;43710;47.460;19.034;2023-03-21T13:22:29;100325.59;;;17.11;41.88
57894;BME280;43710;47.460;19.034;2023-03-21T13:25:32;100330.22;;;17.11;42.07
57894;BME280;43710;47.460;19.034;2023-03-21T13:28:40;100325.00;;;17.06;42.84
57894;BME280;43710;47.460;19.034;2023-03-21T13:31:44;100331.22;;;16.98;43.77
57894;BME280;43710;47.460;19.034;2023-03-21T13:35:02;100329.34;;;16.89;42.55
57894;BME280;43710;47.460;19.034;2023-03-21T13:38:23;100333.81;;;16.85;40.06
57894;BME280;43710;47.460;19.034;2023-03-21T13:41:37;100329.56;;;16.76;40.94
57894;BME280;43710;47.460;19.034;2023-03-21T13:44:45;100323.00;;;16.77;42.44
57894;BME280;43710;47.460;19.034;2023-03-21T13:48:05;100321.72;;;16.83;42.45
57894;BME280;43710;47.460;19.034;2023-03-21T13:51:09;100324.44;;;16.83;41.90
57894;BME280;43710;47.460;19.034;2023-03-21T14:00:38;100312.31;;;16.89;48.53
57894;BME280;43710;47.460;19.034;2023-03-21T14:03:43;100315.63;;;16.95;40.77
57894;BME280;43710;47.460;19.034;2023-03-21T14:07:00;100306.03;;;17.06;41.62
57894;BME280;43710;47.460;19.034;2023-03-21T14:10:12;100303.12;;;17.11;39.07
57894;BME280;43710;47.460;19.034;2023-03-21T14:13:20;100309.03;;;17.13;40.50
57894;BME280;43710;47.460;19.034;2023-03-21T14:16:25;100303.31;;;17.06;39.60
57894;BME280;43710;47.460;19.034;2023-03-21T14:19:33;100295.19;;;17.06;39.57
57894;BME280;43710;47.460;19.034;2023-03-21T14:22:36;100296.91;;;17.10;40.41
57894;BME280;43710;47.460;19.034;2023-03-21T14:25:40;100292.91;;;17.17;41.03
57894;BME280;43710;47.460;19.034;2023-03-21T14:28:50;100286.69;;;17.16;40.37
57894;BME280;43710;47.460;19.034;2023-03-21T14:31:54;100277.31;;;17.13;40.13
57894;BME280;43710;47.460;19.034;2023-03-21T14:34:59;100272.03;;;17.17;40.19
57894;BME280;43710;47.460;19.034;2023-03-21T14:38:07;100271.84;;;17.22;39.12
57894;BME280;43710;47.460;19.034;2023-03-21T14:41:25;100277.28;;;17.22;40.04
57894;BME280;43710;47.460;19.034;2023-03-21T14:44:37;100280.13;;;17.26;39.71
57894;BME280;43710;47.460;19.034;2023-03-21T14:47:58;100276.16;;;17.23;38.80
57894;BME280;43710;47.460;19.034;2023-03-21T14:51:04;100258.81;;;17.16;40.93
57894;BME280;43710;47.460;19.034;2023-03-21T14:54:12;100264.19;;;17.24;37.90
57894;BME280;43710;47.460;19.034;2023-03-21T14:57:21;100269.56;;;17.33;39.38
57894;BME280;43710;47.460;19.034;2023-03-21T15:00:26;100272.31;;;17.24;39.13
57894;BME280;43710;47.460;19.034;2023-03-21T15:03:30;100282.03;;;17.25;39.68
57894;BME280;43710;47.460;19.034;2023-03-21T15:06:47;100276.41;;;17.30;43.28
57894;BME280;43710;47.460;19.034;2023-03-21T15:09:55;100272.56;;;17.31;40.57
57894;BME280;43710;47.460;19.034;2023-03-21T15:13:00;100273.59;;;17.18;41.44
57894;BME280;43710;47.460;19.034;2023-03-21T15:16:04;100271.50;;;17.24;41.54
57894;BME280;43710;47.460;19.034;2023-03-21T15:19:13;100265.72;;;17.34;42.93
57894;BME280;43710;47.460;19.034;2023-03-21T15:25:34;100267.47;;;17.09;40.73
57894;BME280;43710;47.460;19.034;2023-03-21T15:28:38;100263.13;;;17.17;39.71
57894;BME280;43710;47.460;19.034;2023-03-21T15:31:40;100259.00;;;17.10;39.99
57894;BME280;43710;47.460;19.034;2023-03-21T15:34:43;100256.53;;;16.97;40.33
57894;BME280;43710;47.460;19.034;2023-03-21T15:37:55;100258.81;;;16.86;40.83
57894;BME280;43710;47.460;19.034;2023-03-21T15:44:21;100260.25;;;16.75;43.23
57894;BME280;43710;47.460;19.034;2023-03-21T15:53:56;100271.78;;;16.45;43.71
57894;BME280;43710;47.460;19.034;2023-03-21T15:57:04;100266.84;;;16.39;43.49
57894;BME280;43710;47.460;19.034;2023-03-21T16:03:25;100262.44;;;16.34;45.54
57894;BME280;43710;47.460;19.034;2023-03-21T16:06:31;100262.91;;;16.36;45.50
57894;BME280;43710;47.460;19.034;2023-03-21T16:09:41;100268.13;;;16.41;44.50
57894;BME280;43710;47.460;19.034;2023-03-21T16:12:44;100262.72;;;16.41;45.61
57894;BME280;43710;47.460;19.034;2023-03-21T16:15:46;100262.72;;;16.41;43.83
57894;BME280;43710;47.460;19.034;2023-03-21T16:18:49;100263.84;;;16.40;45.16
57894;BME280;43710;47.460;19.034;2023-03-21T16:21:51;100269.75;;;16.42;43.57
57894;BME280;43710;47.460;19.034;2023-03-21T16:24:54;100272.16;;;16.27;44.05
57894;BME280;43710;47.460;19.034;2023-03-21T16:27:56;100270.72;;;16.29;43.54
57894;BME280;43710;47.460;19.034;2023-03-21T16:30:58;100281.06;;;16.27;43.91
57894;BME280;43710;47.460;19.034;2023-03-21T16:34:01;100275.16;;;16.25;43.97
57894;BME280;43710;47.460;19.034;2023-03-21T16:37:05;100277.41;;;16.23;44.58
57894;BME280;43710;47.460;19.034;2023-03-21T16:43:19;100279.31;;;16.14;45.15
57894;BME280;43710;47.460;19.034;2023-03-21T16:46:24;100282.34;;;16.30;53.17
57894;BME280;43710;47.460;19.034;2023-03-21T16:49:27;100280.28;;;16.27;44.87
57894;BME280;43710;47.460;19.034;2023-03-21T16:52:29;100278.84;;;16.29;44.25
57894;BME280;43710;47.460;19.034;2023-03-21T16:55:31;100291.25;;;16.13;45.14
57894;BME280;43710;47.460;19.034;2023-03-21T16:58:35;100294.28;;;16.03;44.22
57894;BME280;43710;47.460;19.034;2023-03-21T17:01:37;100293.16;;;16.04;45.03
57894;BME280;43710;47.460;19.034;2023-03-21T17:04:41;100301.75;;;16.06;45.90
57894;BME280;43710;47.460;19.034;2023-03-21T17:07:45;100296.03;;;16.07;45.85
57894;BME280;43710;47.460;19.034;2023-03-21T17:10:48;100301.28;;;16.04;46.12
